CheckWX is a tool to help pilots better visualize weather data.  It is not intended as a substitute for an official pre-flight weather briefing.

03:11:29 UTC

VTBS METAR
Suvarnabhumi Airport
Bangkok, Thailand
Current

41 mins ago

VTBS 100230Z 09003KT 360V150 8000 NSC 24/13 Q1016 NOSIG
Observed
Dec-10 @ 02:30 UTC
Wind
  • 090° at 3 KTS
Visibility
8,000 meters
Flight Rules
MVFR
Cloud Levels
  • Clear skies
Temperature
24°C / 75°F
Dewpoint
13°C / 55°F
Humidity
50%
Altimeter
30" Hg
Pressure
1015.92 hPa
Previous

1 hour ago

VTBS 100200Z 10004KT 060V130 8000 NSC 23/14 Q1016 NOSIG
Observed
Dec-10 @ 02:00 UTC
Wind
  • 100° at 4 KTS
Visibility
8,000 meters
Flight Rules
MVFR
Cloud Levels
  • Clear skies
Temperature
23°C / 73°F
Dewpoint
14°C / 57°F
Humidity
57%
Altimeter
30" Hg
Pressure
1015.92 hPa
Previous

2 hours ago

VTBS 100130Z 07003KT 020V100 8000 NSC 22/14 Q1016 NOSIG
Observed
Dec-10 @ 01:30 UTC
Wind
  • 070° at 3 KTS
Visibility
8,000 meters
Flight Rules
MVFR
Cloud Levels
  • Clear skies
Temperature
22°C / 72°F
Dewpoint
14°C / 57°F
Humidity
61%
Altimeter
30" Hg
Pressure
1015.92 hPa